createdAt,value
2018-07-22T00:01:46.059Z,12.47
2018-07-22T00:04:13.773Z,10.13
2018-07-22T00:06:41.357Z,12.73
2018-07-22T00:09:10.966Z,8.33
2018-07-22T00:11:38.757Z,10.87
2018-07-22T00:14:06.887Z,11.70
2018-07-22T00:16:34.617Z,11.50
2018-07-22T00:19:02.491Z,9.13
2018-07-22T00:21:30.379Z,9.47
2018-07-22T00:23:58.151Z,10.13
2018-07-22T00:26:25.915Z,11.93
2018-07-22T00:28:53.627Z,8.50
2018-07-22T00:31:21.357Z,13.20
2018-07-22T00:33:49.220Z,22.40
2018-07-22T00:36:16.995Z,8.70
2018-07-22T00:38:44.764Z,10.30
2018-07-22T00:41:12.511Z,10.57
2018-07-22T00:43:40.238Z,9.93
2018-07-22T00:46:07.959Z,13.97
2018-07-22T00:48:35.698Z,10.00
2018-07-22T00:51:03.444Z,7.93
2018-07-22T00:53:31.144Z,11.50
2018-07-22T00:55:58.888Z,9.97
2018-07-22T00:58:26.598Z,11.87
2018-07-22T01:00:54.424Z,10.73
2018-07-22T01:03:22.197Z,9.40
2018-07-22T01:05:49.923Z,9.90
2018-07-22T01:08:17.660Z,11.67
2018-07-22T01:10:45.456Z,8.70
2018-07-22T01:13:13.074Z,15.73
2018-07-22T01:15:40.911Z,8.60
2018-07-22T01:18:08.664Z,9.10
2018-07-22T01:20:36.323Z,8.17
2018-07-22T01:23:03.941Z,12.93
2018-07-22T01:25:31.689Z,6.83
2018-07-22T01:27:59.410Z,9.83
2018-07-22T01:30:27.022Z,8.17
2018-07-22T01:32:54.736Z,7.53
2018-07-22T01:35:22.511Z,7.90
2018-07-22T01:37:50.251Z,9.63
2018-07-22T01:40:17.850Z,7.93
2018-07-22T01:42:45.600Z,11.67
2018-07-22T01:45:13.355Z,9.67
2018-07-22T01:47:41.119Z,9.80
2018-07-22T01:50:08.883Z,8.43
2018-07-22T01:52:36.696Z,10.30
2018-07-22T01:55:04.495Z,9.87
2018-07-22T01:57:32.174Z,10.40
2018-07-22T01:59:59.778Z,9.97
2018-07-22T02:02:27.527Z,12.17
2018-07-22T02:04:55.302Z,15.07
2018-07-22T02:07:23.080Z,10.13
2018-07-22T02:09:50.786Z,10.80
2018-07-22T02:12:18.508Z,10.53
2018-07-22T02:14:46.220Z,10.60
2018-07-22T02:17:13.810Z,9.07
2018-07-22T02:19:41.547Z,8.90
2018-07-22T02:22:09.331Z,9.40
2018-07-22T02:24:37.080Z,8.60
2018-07-22T02:27:04.700Z,10.03
2018-07-22T02:29:32.407Z,11.50
2018-07-22T02:32:00.163Z,10.23
2018-07-22T02:34:27.914Z,11.00
2018-07-22T02:36:55.616Z,8.87
2018-07-22T02:39:23.371Z,11.47
2018-07-22T02:41:51.087Z,12.40
2018-07-22T02:44:18.800Z,12.40
2018-07-22T02:46:46.499Z,11.87
2018-07-22T02:49:14.226Z,11.90
2018-07-22T02:51:41.951Z,10.70
2018-07-22T02:54:09.715Z,16.97
2018-07-22T02:56:37.459Z,8.97
2018-07-22T02:59:05.684Z,12.07
2018-07-22T03:01:34.573Z,11.57
2018-07-22T03:04:02.787Z,12.27
2018-07-22T03:06:30.820Z,11.50
2018-07-22T03:08:58.618Z,11.47
2018-07-22T03:11:26.364Z,11.17
2018-07-22T03:13:54.150Z,9.77
2018-07-22T03:16:21.920Z,17.83
2018-07-22T03:18:49.678Z,13.10
2018-07-22T03:21:17.409Z,11.77
2018-07-22T03:23:45.169Z,13.57
2018-07-22T03:26:12.798Z,11.87
2018-07-22T03:28:40.523Z,14.20
2018-07-22T03:31:08.247Z,12.83
2018-07-22T03:33:35.830Z,12.20
2018-07-22T03:36:03.586Z,11.47
2018-07-22T03:38:31.164Z,14.33
2018-07-22T03:40:58.916Z,12.67
2018-07-22T03:43:26.656Z,13.37
2018-07-22T03:45:54.359Z,15.00
2018-07-22T03:48:22.077Z,14.03
2018-07-22T03:50:49.806Z,13.50
2018-07-22T03:53:17.538Z,14.00
2018-07-22T03:55:45.312Z,16.93
2018-07-22T03:58:13.061Z,14.83
2018-07-22T04:00:40.674Z,12.67
2018-07-22T04:03:08.436Z,14.00
2018-07-22T04:05:36.159Z,15.40
2018-07-22T04:08:03.887Z,9.03
2018-07-22T04:10:31.672Z,17.40
2018-07-22T04:12:59.407Z,15.00
2018-07-22T04:15:27.200Z,11.00
2018-07-22T04:17:54.815Z,13.50
2018-07-22T04:20:22.579Z,11.43
2018-07-22T04:22:50.332Z,12.70
2018-07-22T04:25:18.063Z,13.60
2018-07-22T04:27:45.838Z,13.43
2018-07-22T04:30:13.564Z,11.73
2018-07-22T04:32:41.323Z,12.07
2018-07-22T04:35:09.036Z,15.67
2018-07-22T04:37:36.796Z,13.80
2018-07-22T04:40:04.634Z,14.50
2018-07-22T04:42:32.395Z,10.80
2018-07-22T04:45:00.140Z,12.67
2018-07-22T04:47:27.917Z,19.27
2018-07-22T04:49:55.632Z,20.23
2018-07-22T04:52:23.325Z,21.03
2018-07-22T04:54:51.042Z,15.33
2018-07-22T04:57:18.721Z,18.23
2018-07-22T04:59:46.422Z,14.60
2018-07-22T05:02:14.131Z,16.20
2018-07-22T05:04:41.841Z,14.50
2018-07-22T05:07:09.560Z,13.23
2018-07-22T05:09:37.305Z,12.43
2018-07-22T05:12:05.208Z,12.70
2018-07-22T05:14:32.978Z,15.07
2018-07-22T05:17:00.819Z,13.13
2018-07-22T05:19:28.584Z,14.30
2018-07-22T05:21:56.306Z,12.60
2018-07-22T05:24:24.039Z,12.37
2018-07-22T05:26:51.802Z,15.10
2018-07-22T05:29:19.579Z,14.70
2018-07-22T05:31:47.307Z,12.40
2018-07-22T05:34:15.067Z,17.43
2018-07-22T05:36:42.794Z,16.53
2018-07-22T05:39:11.642Z,15.47
2018-07-22T05:41:39.786Z,12.47
2018-07-22T05:44:07.410Z,11.73
2018-07-22T05:46:35.267Z,11.80
2018-07-22T05:49:03.313Z,11.23
2018-07-22T05:51:31.136Z,14.30
2018-07-22T05:53:58.876Z,13.70
2018-07-22T05:56:26.627Z,18.07
2018-07-22T05:58:54.386Z,12.07
2018-07-22T06:01:22.140Z,17.53
2018-07-22T06:03:49.956Z,14.23
2018-07-22T06:06:17.749Z,15.43
2018-07-22T06:08:45.512Z,15.03
2018-07-22T06:11:13.396Z,12.60
2018-07-22T06:13:41.142Z,18.60
2018-07-22T06:16:08.875Z,16.73
2018-07-22T06:18:36.643Z,12.50
2018-07-22T06:21:04.415Z,15.67
2018-07-22T06:23:32.204Z,15.33
2018-07-22T06:25:59.904Z,14.67
2018-07-22T06:28:27.701Z,14.03
2018-07-22T06:30:55.435Z,12.70
2018-07-22T06:33:23.163Z,14.20
2018-07-22T06:35:50.903Z,17.37
2018-07-22T06:38:18.533Z,15.80
2018-07-22T06:40:46.261Z,14.77
2018-07-22T06:43:14.059Z,11.40
2018-07-22T06:45:41.892Z,13.97
2018-07-22T06:48:09.683Z,12.73
2018-07-22T06:50:37.419Z,18.50
2018-07-22T06:53:05.172Z,15.50
2018-07-22T06:55:32.907Z,12.90
2018-07-22T06:58:00.679Z,14.00
2018-07-22T07:00:28.292Z,13.70
2018-07-22T07:02:56.033Z,14.87
2018-07-22T07:05:23.839Z,13.13
2018-07-22T07:07:51.581Z,14.83
2018-07-22T07:10:19.351Z,15.30
2018-07-22T07:12:47.071Z,12.57
2018-07-22T07:15:14.717Z,13.60
2018-07-22T07:17:42.494Z,12.33
2018-07-22T07:20:10.146Z,14.33
2018-07-22T07:22:37.832Z,12.33
2018-07-22T07:25:06.167Z,15.23
2018-07-22T07:27:33.907Z,10.17
2018-07-22T07:30:02.004Z,12.53
2018-07-22T07:32:29.707Z,16.77
2018-07-22T07:34:57.341Z,12.20
2018-07-22T07:37:25.077Z,14.83
2018-07-22T07:39:52.819Z,12.03
2018-07-22T07:42:20.618Z,12.97
2018-07-22T07:44:48.400Z,12.00
2018-07-22T07:47:16.173Z,13.73
2018-07-22T07:49:43.934Z,12.40
2018-07-22T07:52:11.663Z,12.10
2018-07-22T07:54:39.415Z,11.77
2018-07-22T07:57:07.160Z,12.13
2018-07-22T07:59:34.899Z,13.27
2018-07-22T08:02:02.629Z,12.30
2018-07-22T08:04:30.340Z,12.30
2018-07-22T08:06:58.119Z,13.03
2018-07-22T08:09:25.885Z,10.17
2018-07-22T08:11:53.667Z,9.63
2018-07-22T08:14:21.508Z,10.53
2018-07-22T08:16:49.259Z,8.37
2018-07-22T08:19:16.891Z,14.90
2018-07-22T08:21:44.611Z,8.23
2018-07-22T08:24:12.384Z,12.10
2018-07-22T08:26:40.148Z,9.90
2018-07-22T08:29:28.895Z,10.20
2018-07-22T08:31:56.954Z,8.90
2018-07-22T08:34:24.772Z,9.67
2018-07-22T08:36:52.488Z,8.53
2018-07-22T08:39:21.591Z,9.90
2018-07-22T08:41:50.156Z,19.90
2018-07-22T08:44:17.886Z,7.93
2018-07-22T08:46:45.585Z,15.53
2018-07-22T08:49:13.327Z,8.87
2018-07-22T08:51:41.090Z,11.93
2018-07-22T08:54:08.822Z,8.67
2018-07-22T08:56:36.620Z,7.80
2018-07-22T08:59:04.604Z,7.30
2018-07-22T09:01:32.415Z,5.30
2018-07-22T09:04:00.324Z,5.80
2018-07-22T09:06:28.647Z,5.57
2018-07-22T09:08:56.627Z,6.43
2018-07-22T09:11:25.039Z,13.50
2018-07-22T09:13:53.002Z,6.13
2018-07-22T09:16:20.951Z,6.27
2018-07-22T09:18:48.977Z,7.20
2018-07-22T09:21:16.727Z,8.60
2018-07-22T09:23:44.561Z,8.70
2018-07-22T09:26:12.464Z,6.27
2018-07-22T09:28:40.445Z,6.17
2018-07-22T09:31:08.307Z,6.93
2018-07-22T09:33:36.321Z,5.70
2018-07-22T09:36:04.126Z,4.60
2018-07-22T09:38:31.891Z,6.33
2018-07-22T09:40:59.619Z,5.87
2018-07-22T09:43:27.879Z,4.73
2018-07-22T09:45:55.917Z,6.80
2018-07-22T09:48:23.899Z,5.20
2018-07-22T09:50:51.556Z,4.67
2018-07-22T09:53:19.466Z,6.30
2018-07-22T09:55:48.024Z,5.20
2018-07-22T09:58:15.850Z,7.93
2018-07-22T10:00:49.218Z,6.50
2018-07-22T10:03:17.179Z,5.10
2018-07-22T10:05:45.171Z,4.60
2018-07-22T10:08:13.067Z,4.80
2018-07-22T10:10:40.770Z,3.63
2018-07-22T10:13:09.215Z,5.60
2018-07-22T10:15:36.939Z,6.43
2018-07-22T10:18:04.762Z,4.93
2018-07-22T10:20:32.358Z,6.17
2018-07-22T10:23:00.074Z,4.43
2018-07-22T10:25:27.695Z,8.10
2018-07-22T10:27:55.506Z,4.93
2018-07-22T10:30:23.292Z,4.63
2018-07-22T10:32:51.151Z,4.47
2018-07-22T10:35:19.014Z,5.23
2018-07-22T10:37:46.813Z,4.17
2018-07-22T10:40:15.075Z,5.50
2018-07-22T10:42:42.851Z,3.43
2018-07-22T10:45:10.708Z,5.17
2018-07-22T10:47:39.079Z,5.47
2018-07-22T10:50:07.271Z,9.97
2018-07-22T10:52:35.015Z,5.50
2018-07-22T10:55:02.875Z,5.00
2018-07-22T10:57:30.645Z,5.23
2018-07-22T10:59:58.492Z,5.13
2018-07-22T11:02:26.280Z,4.73
2018-07-22T11:04:54.056Z,9.40
2018-07-22T11:07:22.413Z,13.73
2018-07-22T11:09:50.179Z,3.83
2018-07-22T11:12:17.951Z,5.10
2018-07-22T11:14:45.818Z,3.87
2018-07-22T11:17:13.899Z,8.17
2018-07-22T11:19:41.632Z,4.80
2018-07-22T11:22:09.665Z,5.00
2018-07-22T11:24:37.447Z,5.50
2018-07-22T11:27:05.332Z,5.20
2018-07-22T11:29:33.082Z,6.13
2018-07-22T11:32:00.724Z,4.47
2018-07-22T11:34:28.450Z,11.03
2018-07-22T11:36:56.237Z,4.27
2018-07-22T11:39:23.955Z,7.30
2018-07-22T11:41:51.704Z,8.40
2018-07-22T11:44:19.335Z,4.63
2018-07-22T11:46:47.086Z,5.10
2018-07-22T11:49:14.840Z,4.17
2018-07-22T11:51:42.568Z,3.93
2018-07-22T11:54:10.289Z,5.80
2018-07-22T11:56:38.004Z,5.50
2018-07-22T11:59:05.839Z,5.27
2018-07-22T12:01:33.640Z,6.57
2018-07-22T12:04:01.242Z,4.73
2018-07-22T12:06:28.942Z,6.47
2018-07-22T12:08:56.695Z,5.27
2018-07-22T12:11:24.391Z,5.13
2018-07-22T12:13:52.147Z,8.67
2018-07-22T12:16:19.774Z,6.07
2018-07-22T12:18:47.515Z,4.37
2018-07-22T12:21:15.304Z,7.07
2018-07-22T12:23:43.076Z,4.43
2018-07-22T12:26:10.803Z,4.20
2018-07-22T12:28:38.580Z,10.90
2018-07-22T12:31:06.349Z,5.47
2018-07-22T12:33:34.091Z,9.30
2018-07-22T12:36:01.876Z,4.77
2018-07-22T12:38:29.722Z,6.60
2018-07-22T12:40:57.640Z,5.87
2018-07-22T12:43:25.429Z,7.63
2018-07-22T12:45:53.048Z,5.50
2018-07-22T12:48:20.833Z,6.40
2018-07-22T12:50:48.560Z,6.33
2018-07-22T12:53:16.304Z,10.63
2018-07-22T12:55:44.050Z,6.73
2018-07-22T12:58:11.829Z,7.90
2018-07-22T13:00:39.634Z,6.13
2018-07-22T13:03:07.451Z,7.07
2018-07-22T13:05:35.923Z,5.77
2018-07-22T13:08:03.735Z,5.63
2018-07-22T13:10:31.704Z,5.87
2018-07-22T13:12:59.496Z,5.37
2018-07-22T13:15:27.247Z,5.03
2018-07-22T13:17:55.034Z,7.27
2018-07-22T13:20:22.665Z,5.00
2018-07-22T13:22:50.446Z,5.57
2018-07-22T13:25:18.228Z,7.93
2018-07-22T13:27:45.907Z,10.87
2018-07-22T13:30:14.770Z,8.37
2018-07-22T13:32:42.524Z,5.93
2018-07-22T13:35:10.311Z,5.53
2018-07-22T13:37:37.968Z,5.10
2018-07-22T13:40:05.749Z,5.97
2018-07-22T13:42:33.392Z,4.67
2018-07-22T13:45:01.132Z,5.40
2018-07-22T13:47:28.895Z,8.73
2018-07-22T13:49:56.641Z,4.93
2018-07-22T13:52:24.536Z,6.73
2018-07-22T13:54:52.320Z,5.60
2018-07-22T13:57:20.119Z,5.20
2018-07-22T13:59:48.029Z,5.60
2018-07-22T14:02:15.876Z,4.83
2018-07-22T14:04:43.655Z,7.10
2018-07-22T14:07:11.467Z,4.27
2018-07-22T14:09:39.078Z,4.43
2018-07-22T14:12:07.067Z,7.73
2018-07-22T14:14:34.741Z,5.10
2018-07-22T14:17:02.539Z,3.80
2018-07-22T14:19:30.263Z,3.83
2018-07-22T14:21:58.034Z,5.47
2018-07-22T14:24:25.763Z,3.93
2018-07-22T14:26:53.561Z,4.20
2018-07-22T14:29:21.297Z,8.87
2018-07-22T14:31:49.101Z,7.87
2018-07-22T14:34:16.820Z,3.83
2018-07-22T14:36:44.582Z,4.13
2018-07-22T14:39:12.970Z,5.23
2018-07-22T14:41:41.156Z,4.90
2018-07-22T14:44:08.927Z,6.50
2018-07-22T14:46:37.043Z,4.90
2018-07-22T14:49:04.913Z,4.40
2018-07-22T14:51:32.707Z,4.43
2018-07-22T14:54:00.975Z,7.57
2018-07-22T14:56:28.682Z,5.33
2018-07-22T14:58:56.479Z,7.03
2018-07-22T15:01:24.264Z,6.50
2018-07-22T15:03:52.000Z,4.50
2018-07-22T15:06:19.761Z,4.73
2018-07-22T15:08:47.509Z,4.90
2018-07-22T15:11:15.235Z,5.23
2018-07-22T15:13:43.024Z,6.93
2018-07-22T15:16:10.770Z,4.50
2018-07-22T15:18:38.523Z,4.60
2018-07-22T15:21:06.419Z,5.50
2018-07-22T15:23:34.247Z,5.77
2018-07-22T15:26:02.241Z,4.97
2018-07-22T15:28:30.091Z,5.63
2018-07-22T15:30:57.845Z,7.03
2018-07-22T15:33:25.745Z,4.80
2018-07-22T15:35:53.515Z,6.00
2018-07-22T15:38:21.266Z,4.77
2018-07-22T15:40:49.114Z,4.30
2018-07-22T15:43:16.907Z,4.00
2018-07-22T15:45:44.592Z,5.97
2018-07-22T15:48:12.329Z,4.80
2018-07-22T15:50:40.024Z,7.23
2018-07-22T15:53:07.758Z,4.77
2018-07-22T15:55:35.580Z,5.40
2018-07-22T15:58:03.270Z,6.10
2018-07-22T16:00:31.022Z,5.50
2018-07-22T16:02:58.762Z,7.00
2018-07-22T16:05:26.462Z,8.40
2018-07-22T16:07:54.188Z,5.47
2018-07-22T16:10:21.907Z,5.70
2018-07-22T16:12:49.655Z,7.43
2018-07-22T16:15:17.371Z,6.03
2018-07-22T16:17:45.131Z,5.27
2018-07-22T16:20:12.907Z,5.30
2018-07-22T16:22:40.650Z,7.97
2018-07-22T16:25:08.731Z,6.10
2018-07-22T16:27:36.470Z,12.77
2018-07-22T16:30:05.334Z,4.83
2018-07-22T16:32:33.089Z,6.63
2018-07-22T16:35:00.830Z,6.30
2018-07-22T16:37:28.583Z,7.70
2018-07-22T16:39:56.411Z,5.43
2018-07-22T16:42:24.274Z,7.50
2018-07-22T16:44:52.112Z,9.10
2018-07-22T16:47:19.833Z,8.70
2018-07-22T16:49:47.587Z,7.07
2018-07-22T16:52:15.367Z,5.50
2018-07-22T16:54:43.186Z,5.60
2018-07-22T16:57:10.986Z,4.87
2018-07-22T16:59:38.739Z,6.57
2018-07-22T17:02:06.487Z,6.70
2018-07-22T17:04:34.187Z,9.00
2018-07-22T17:07:02.048Z,5.27
2018-07-22T17:09:29.768Z,5.80
2018-07-22T17:11:57.450Z,7.03
2018-07-22T17:14:25.160Z,6.70
2018-07-22T17:16:52.757Z,8.70
2018-07-22T17:19:20.472Z,8.17
2018-07-22T17:21:48.176Z,8.03
2018-07-22T17:24:15.888Z,7.80
2018-07-22T17:26:43.574Z,6.17
2018-07-22T17:29:11.194Z,6.63
2018-07-22T17:31:38.911Z,6.33
2018-07-22T17:34:06.619Z,8.50
2018-07-22T17:36:34.352Z,9.23
2018-07-22T17:39:02.159Z,7.23
2018-07-22T17:41:29.896Z,7.27
2018-07-22T17:43:57.618Z,5.63
2018-07-22T17:46:25.312Z,6.57
2018-07-22T17:48:53.010Z,6.50
2018-07-22T17:51:20.703Z,6.20
2018-07-22T17:53:48.310Z,9.30
2018-07-22T17:56:16.028Z,7.30
2018-07-22T17:58:43.620Z,6.73
2018-07-22T18:01:11.442Z,5.80
2018-07-22T18:03:39.207Z,6.10
2018-07-22T18:06:06.960Z,6.10
2018-07-22T18:08:34.679Z,7.00
2018-07-22T18:11:02.461Z,7.50
2018-07-22T18:13:36.922Z,5.90
2018-07-22T18:16:04.634Z,6.53
2018-07-22T18:18:32.322Z,6.73
2018-07-22T18:21:00.071Z,9.10
2018-07-22T18:23:27.815Z,7.90
2018-07-22T18:25:55.503Z,5.77
2018-07-22T18:28:23.230Z,7.47
2018-07-22T18:30:50.791Z,9.13
2018-07-22T18:33:18.380Z,8.40
2018-07-22T18:35:46.147Z,8.13
2018-07-22T18:38:13.876Z,7.73
2018-07-22T18:40:41.480Z,6.33
2018-07-22T18:43:09.333Z,6.30
2018-07-22T18:45:37.076Z,7.47
2018-07-22T18:48:04.807Z,8.33
2018-07-22T18:50:32.576Z,6.47
2018-07-22T18:53:00.233Z,7.43
2018-07-22T18:55:28.028Z,9.60
2018-07-22T18:57:55.807Z,10.70
2018-07-22T19:00:23.635Z,6.20
2018-07-22T19:02:51.670Z,11.60
2018-07-22T19:05:19.489Z,8.10
2018-07-22T19:07:47.106Z,7.33
2018-07-22T19:10:14.863Z,8.70
2018-07-22T19:12:42.589Z,7.80
2018-07-22T19:15:10.315Z,7.57
2018-07-22T19:17:38.028Z,7.40
2018-07-22T19:20:05.828Z,7.93
2018-07-22T19:22:33.588Z,6.90
2018-07-22T19:25:01.362Z,14.07
2018-07-22T19:27:29.131Z,14.10
2018-07-22T19:29:56.785Z,8.30
2018-07-22T19:32:24.426Z,9.00
2018-07-22T19:34:52.217Z,7.23
2018-07-22T19:37:19.985Z,7.20
2018-07-22T19:39:47.757Z,7.00
2018-07-22T19:42:15.387Z,7.43
2018-07-22T19:44:43.219Z,8.77
2018-07-22T19:47:11.021Z,6.90
2018-07-22T19:49:38.847Z,6.40
2018-07-22T19:52:06.883Z,7.60
2018-07-22T19:54:34.661Z,10.23
2018-07-22T19:57:02.449Z,7.30
2018-07-22T19:59:30.210Z,10.57
2018-07-22T20:01:57.831Z,10.50
2018-07-22T20:04:25.608Z,6.70
2018-07-22T20:06:53.332Z,12.27
2018-07-22T20:09:20.947Z,7.27
2018-07-22T20:11:48.639Z,8.23
2018-07-22T20:14:16.360Z,6.70
2018-07-22T20:16:44.026Z,7.93
2018-07-22T20:19:11.758Z,8.03
2018-07-22T20:21:39.431Z,7.40
2018-07-22T20:24:07.307Z,7.17
2018-07-22T20:26:34.946Z,10.17
2018-07-22T20:29:02.748Z,7.20
2018-07-22T20:31:30.575Z,8.40
2018-07-22T20:33:58.374Z,7.70
2018-07-22T20:36:26.126Z,7.23
2018-07-22T20:38:53.795Z,8.20
2018-07-22T20:41:21.519Z,7.20
2018-07-22T20:43:49.248Z,7.93
2018-07-22T20:46:16.918Z,7.43
2018-07-22T20:48:44.471Z,6.40
2018-07-22T20:51:12.216Z,6.87
2018-07-22T20:53:39.935Z,6.97
2018-07-22T20:56:07.676Z,7.77
2018-07-22T20:58:35.267Z,7.43
2018-07-22T21:01:03.099Z,7.23
2018-07-22T21:03:30.678Z,7.13
2018-07-22T21:05:58.496Z,9.40
2018-07-22T21:08:26.188Z,8.70
2018-07-22T21:10:53.906Z,6.10
2018-07-22T21:13:22.942Z,12.30
2018-07-22T21:15:50.653Z,7.07
2018-07-22T21:18:18.356Z,6.80
2018-07-22T21:20:46.065Z,12.47
2018-07-22T21:23:13.814Z,6.80
2018-07-22T21:25:41.503Z,7.00
2018-07-22T21:28:09.270Z,5.77
2018-07-22T21:30:36.991Z,5.40
2018-07-22T21:33:04.654Z,5.57
2018-07-22T21:35:32.217Z,5.40
2018-07-22T21:38:00.647Z,4.63
2018-07-22T21:40:28.409Z,3.83
2018-07-22T21:42:56.074Z,5.70
2018-07-22T21:45:23.830Z,3.93
2018-07-22T21:47:51.558Z,4.47
2018-07-22T21:50:19.149Z,4.03
2018-07-22T21:52:46.861Z,5.40
2018-07-22T21:55:14.610Z,3.50
2018-07-22T21:57:42.345Z,3.70
2018-07-22T22:00:21.854Z,4.10
2018-07-22T22:02:49.558Z,3.40
2018-07-22T22:05:17.361Z,3.60
2018-07-22T22:07:45.139Z,3.33
2018-07-22T22:10:12.981Z,4.40
2018-07-22T22:12:40.736Z,4.60
2018-07-22T22:15:14.952Z,11.67
2018-07-22T22:17:43.035Z,4.13
2018-07-22T22:20:10.759Z,6.70
2018-07-22T22:22:38.507Z,4.17
2018-07-22T22:25:06.292Z,4.30
2018-07-22T22:27:34.064Z,4.57
2018-07-22T22:30:01.797Z,4.03
2018-07-22T22:32:29.608Z,4.07
2018-07-22T22:34:57.370Z,3.67
2018-07-22T22:37:25.100Z,3.27
2018-07-22T22:39:52.826Z,3.20
2018-07-22T22:42:20.478Z,3.93
2018-07-22T22:44:48.098Z,3.50
2018-07-22T22:47:15.822Z,5.97
2018-07-22T22:49:43.632Z,3.83
2018-07-22T22:52:11.394Z,3.50
2018-07-22T22:54:39.123Z,4.23
2018-07-22T22:57:06.949Z,3.23
2018-07-22T22:59:35.120Z,3.70
2018-07-22T23:02:02.785Z,4.23
2018-07-22T23:04:30.521Z,3.27
2018-07-22T23:06:58.310Z,4.53
2018-07-22T23:09:26.068Z,3.43
2018-07-22T23:11:53.796Z,3.47
2018-07-22T23:14:21.584Z,3.70
2018-07-22T23:16:49.319Z,4.03
2018-07-22T23:19:17.063Z,3.37
2018-07-22T23:21:44.795Z,3.10
2018-07-22T23:24:12.519Z,4.10
2018-07-22T23:26:40.296Z,3.03
2018-07-22T23:29:08.486Z,3.73
2018-07-22T23:31:36.674Z,4.00
2018-07-22T23:34:05.643Z,3.57
2018-07-22T23:36:33.768Z,3.90
2018-07-22T23:39:02.004Z,4.40
2018-07-22T23:41:29.957Z,4.30
2018-07-22T23:43:57.909Z,5.37
2018-07-22T23:46:26.022Z,4.20
2018-07-22T23:48:54.078Z,4.57
2018-07-22T23:51:21.989Z,9.63
2018-07-22T23:53:50.221Z,4.07
2018-07-22T23:56:18.281Z,6.57
2018-07-22T23:58:46.178Z,4.80
